Terminal Aerodrome Forecast
Issued by NWS Tampa Bay Area, FL

Home | Current Version | Previous Version | Text Only | Print | Product List | Glossary On
Versions: 1 2 3 4 5 6 7 8 9 10 11 12 13 14 15 16 17 18 19
000
FTUS42 KTBW 181700
TAFSRQ
TAF
KSRQ 181737Z 1818/1918 31004KT P6SM FEW030 SCT250
     FM190100 VRB02KT P6SM SCT250
      TEMPO 1909/1912 5SM BR
     FM191300 07005KT P6SM FEW150 BKN250=

USA.gov is the U.S. government's official web portal to all federal, state and local government web resources and services.